createdAt,value
2023-12-12T00:00:52.394Z,19.90
2023-12-12T00:03:55.954Z,44.70
2023-12-12T00:06:58.977Z,21.90
2023-12-12T00:10:02.479Z,19.23
2023-12-12T00:13:05.468Z,24.23
2023-12-12T00:16:10.157Z,25.50
2023-12-12T00:19:14.235Z,38.33
2023-12-12T00:22:17.194Z,33.60
2023-12-12T00:25:20.478Z,27.10
2023-12-12T00:28:25.872Z,29.60
2023-12-12T00:31:29.176Z,52.63
2023-12-12T00:34:33.272Z,21.63
2023-12-12T00:37:37.874Z,19.13
2023-12-12T00:40:43.069Z,16.07
2023-12-12T00:43:48.027Z,20.10
2023-12-12T00:46:51.035Z,15.70
2023-12-12T00:49:54.995Z,14.17
2023-12-12T00:52:58.192Z,15.77
2023-12-12T00:56:01.316Z,14.23
2023-12-12T00:59:04.207Z,9.20
2023-12-12T01:02:08.029Z,11.53
2023-12-12T01:05:11.539Z,8.80
2023-12-12T01:08:14.907Z,11.53
2023-12-12T01:11:17.951Z,12.60
2023-12-12T01:14:20.991Z,9.37
2023-12-12T01:20:53.266Z,8.17
2023-12-12T01:23:55.568Z,8.53
2023-12-12T01:26:57.764Z,12.10
2023-12-12T01:30:00.159Z,12.13
2023-12-12T01:33:02.397Z,8.57
2023-12-12T01:36:04.804Z,10.23
2023-12-12T01:39:07.024Z,8.67
2023-12-12T01:42:09.197Z,9.70
2023-12-12T01:45:11.421Z,7.53
2023-12-12T01:48:13.843Z,7.13
2023-12-12T01:51:15.963Z,8.53
2023-12-12T01:54:18.420Z,7.30
2023-12-12T01:57:20.695Z,8.13
2023-12-12T02:00:22.927Z,7.17
2023-12-12T02:03:25.265Z,6.67
2023-12-12T02:06:29.521Z,6.73
2023-12-12T02:09:32.082Z,10.63
2023-12-12T02:12:35.236Z,5.50
2023-12-12T02:15:37.474Z,9.47
2023-12-12T02:18:39.732Z,10.57
2023-12-12T02:21:41.966Z,9.00
2023-12-12T02:24:44.308Z,8.17
2023-12-12T02:27:47.155Z,8.87
2023-12-12T02:30:51.146Z,6.77
2023-12-12T02:33:53.490Z,9.57
2023-12-12T02:36:57.024Z,12.97
2023-12-12T02:39:59.198Z,12.13
2023-12-12T02:43:01.686Z,13.63
2023-12-12T02:46:03.844Z,11.03
2023-12-12T02:49:07.305Z,11.30
2023-12-12T02:52:09.425Z,11.37
2023-12-12T02:55:11.840Z,16.10
2023-12-12T02:58:14.152Z,15.13
2023-12-12T03:01:16.585Z,12.47
2023-12-12T03:04:18.647Z,9.47
2023-12-12T03:07:20.945Z,8.13
2023-12-12T03:10:24.300Z,9.43
2023-12-12T03:13:26.653Z,6.10
2023-12-12T03:16:29.947Z,10.20
2023-12-12T03:19:32.312Z,11.23
2023-12-12T03:22:34.418Z,10.13
2023-12-12T03:25:36.718Z,7.97
2023-12-12T03:28:39.271Z,12.57
2023-12-12T03:31:41.799Z,9.17
2023-12-12T03:34:43.979Z,11.27
2023-12-12T03:37:46.410Z,12.33
2023-12-12T03:40:48.482Z,9.67
2023-12-12T03:43:51.191Z,8.67
2023-12-12T03:46:53.647Z,10.53
2023-12-12T03:49:56.201Z,7.83
2023-12-12T03:52:58.646Z,10.63
2023-12-12T03:56:01.145Z,8.60
2023-12-12T03:59:03.498Z,9.40
2023-12-12T04:02:05.714Z,8.50
2023-12-12T04:05:12.178Z,12.73
2023-12-12T04:08:14.480Z,9.33
2023-12-12T04:11:16.588Z,12.40
2023-12-12T04:14:18.910Z,10.73
2023-12-12T04:17:21.280Z,14.77
2023-12-12T04:20:23.595Z,9.67
2023-12-12T04:23:27.995Z,9.03
2023-12-12T04:26:31.010Z,9.77
2023-12-12T04:29:33.507Z,9.87
2023-12-12T04:32:35.826Z,17.23
2023-12-12T04:35:39.691Z,22.10
2023-12-12T04:38:41.921Z,20.50
2023-12-12T04:41:44.156Z,21.27
2023-12-12T04:44:46.419Z,17.00
2023-12-12T04:47:50.127Z,17.87
2023-12-12T04:50:53.641Z,15.73
2023-12-12T04:53:55.863Z,20.03
2023-12-12T04:56:58.383Z,19.93
2023-12-12T05:00:00.432Z,17.63
2023-12-12T05:03:03.867Z,17.90
2023-12-12T05:06:06.078Z,18.43
2023-12-12T05:09:08.420Z,20.27
2023-12-12T05:12:10.559Z,18.37
2023-12-12T05:15:16.461Z,22.47
2023-12-12T05:18:18.765Z,19.20
2023-12-12T05:21:23.266Z,23.17
2023-12-12T05:24:26.499Z,21.37
2023-12-12T05:27:31.352Z,22.27
2023-12-12T05:30:35.803Z,24.93
2023-12-12T05:33:39.187Z,25.03
2023-12-12T05:36:41.561Z,25.13
2023-12-12T05:39:43.903Z,25.83
2023-12-12T05:42:46.185Z,27.30
2023-12-12T05:45:49.109Z,29.97
2023-12-12T05:48:52.436Z,24.63
2023-12-12T05:51:57.357Z,26.03
2023-12-12T05:54:59.842Z,29.77
2023-12-12T05:58:03.176Z,36.47
2023-12-12T06:01:05.720Z,27.30
2023-12-12T06:04:09.111Z,32.03
2023-12-12T06:07:17.768Z,32.90
2023-12-12T06:10:22.388Z,28.23
2023-12-12T06:13:28.182Z,29.90
2023-12-12T06:16:35.260Z,35.20
2023-12-12T06:19:45.984Z,54.93
2023-12-12T06:22:49.156Z,52.13
2023-12-12T06:25:52.805Z,42.43
2023-12-12T06:28:55.721Z,42.47
2023-12-12T06:31:58.279Z,43.70
2023-12-12T06:35:01.746Z,46.27
2023-12-12T06:38:05.699Z,27.30
2023-12-12T06:41:07.973Z,21.87
2023-12-12T06:44:12.617Z,15.43
2023-12-12T06:47:17.742Z,18.57
2023-12-12T06:50:21.481Z,12.27
2023-12-12T06:53:25.260Z,17.53
2023-12-12T06:56:27.468Z,24.43
2023-12-12T06:59:31.698Z,17.93
2023-12-12T07:02:34.016Z,26.83
2023-12-12T07:05:36.426Z,16.13
2023-12-12T07:08:40.546Z,16.00
2023-12-12T07:11:43.131Z,16.87
2023-12-12T07:14:45.594Z,15.93
2023-12-12T07:17:48.056Z,14.93
2023-12-12T07:20:50.233Z,14.90
2023-12-12T07:23:53.333Z,15.03
2023-12-12T07:26:56.142Z,23.33
2023-12-12T07:29:59.106Z,19.83
2023-12-12T07:33:01.455Z,18.63
2023-12-12T07:36:03.913Z,34.03
2023-12-12T07:39:12.392Z,29.07
2023-12-12T07:42:15.082Z,27.93
2023-12-12T07:45:19.865Z,37.27
2023-12-12T07:48:25.192Z,52.53
2023-12-12T07:51:30.093Z,49.73
2023-12-12T07:54:33.328Z,41.10
2023-12-12T07:57:36.575Z,39.93
2023-12-12T08:00:38.910Z,41.53
2023-12-12T08:03:41.218Z,52.27
2023-12-12T08:06:43.857Z,23.57
2023-12-12T08:09:46.271Z,27.20
2023-12-12T08:12:49.856Z,46.23
2023-12-12T08:15:52.315Z,28.27
2023-12-12T08:18:54.411Z,32.53
2023-12-12T08:21:56.449Z,25.37
2023-12-12T08:24:58.853Z,26.67
2023-12-12T08:28:04.631Z,24.03
2023-12-12T08:31:07.071Z,17.93
2023-12-12T08:34:09.322Z,15.77
2023-12-12T08:37:11.763Z,17.93
2023-12-12T08:40:14.365Z,22.47
2023-12-12T08:43:17.596Z,23.23
2023-12-12T08:46:27.923Z,25.70
2023-12-12T08:49:30.533Z,24.20
2023-12-12T08:52:38.123Z,25.03
2023-12-12T08:55:41.825Z,26.37
2023-12-12T08:58:48.179Z,27.77
2023-12-12T09:01:51.530Z,41.37
2023-12-12T09:04:54.051Z,36.40
2023-12-12T09:07:57.517Z,32.57
2023-12-12T09:11:00.520Z,22.13
2023-12-12T09:14:06.958Z,25.97
2023-12-12T09:17:09.224Z,33.13
2023-12-12T09:20:13.841Z,28.50
2023-12-12T09:23:16.873Z,41.47
2023-12-12T09:26:20.072Z,54.00
2023-12-12T09:29:22.717Z,29.67
2023-12-12T09:32:24.803Z,26.03
2023-12-12T09:35:28.071Z,15.57
2023-12-12T09:38:30.410Z,35.93
2023-12-12T09:41:33.690Z,17.73
2023-12-12T09:44:35.980Z,20.90
2023-12-12T09:47:40.347Z,21.23
2023-12-12T09:50:47.231Z,16.87
2023-12-12T09:53:49.867Z,17.17
2023-12-12T09:56:52.276Z,20.07
2023-12-12T09:59:54.410Z,40.27
2023-12-12T10:02:58.713Z,24.00
2023-12-12T10:06:09.596Z,36.70
2023-12-12T10:09:12.466Z,44.30
2023-12-12T10:12:14.728Z,25.43
2023-12-12T10:15:24.017Z,21.60
2023-12-12T10:18:26.066Z,55.00
2023-12-12T10:21:28.336Z,23.27
2023-12-12T10:24:31.510Z,23.83
2023-12-12T10:27:33.948Z,19.50
2023-12-12T10:30:37.436Z,20.57
2023-12-12T10:33:40.649Z,26.93
2023-12-12T10:36:44.130Z,17.67
2023-12-12T10:39:46.616Z,12.13
2023-12-12T10:42:53.350Z,18.63
2023-12-12T10:45:55.730Z,29.37
2023-12-12T10:49:00.389Z,9.27
2023-12-12T10:52:05.727Z,22.50
2023-12-12T10:55:12.406Z,27.57
2023-12-12T10:58:14.768Z,32.10
2023-12-12T11:01:17.286Z,21.27
2023-12-12T11:04:19.349Z,17.50
2023-12-12T11:07:22.466Z,30.03
2023-12-12T11:10:25.189Z,40.37
2023-12-12T11:13:27.846Z,29.10
2023-12-12T11:16:32.225Z,18.70
2023-12-12T11:19:34.422Z,24.17
2023-12-12T11:22:40.743Z,26.20
2023-12-12T11:25:44.874Z,34.23
2023-12-12T11:28:48.562Z,28.97
2023-12-12T11:32:03.268Z,48.17
2023-12-12T11:35:09.599Z,22.97
2023-12-12T11:38:32.256Z,60.73
2023-12-12T11:41:36.385Z,27.73
2023-12-12T11:44:42.333Z,28.20
2023-12-12T11:47:44.597Z,34.13
2023-12-12T11:50:47.327Z,16.10
2023-12-12T11:53:49.794Z,23.13
2023-12-12T11:57:00.009Z,12.47
2023-12-12T12:00:03.216Z,15.17
2023-12-12T12:03:07.299Z,19.53
2023-12-12T12:06:09.626Z,11.17
2023-12-12T12:09:17.550Z,9.37
2023-12-12T12:12:21.171Z,12.60
2023-12-12T12:15:24.719Z,15.63
2023-12-12T12:18:30.135Z,15.77
2023-12-12T12:21:32.533Z,17.83
2023-12-12T12:24:41.545Z,21.47
2023-12-12T12:27:51.117Z,25.67
2023-12-12T12:30:55.512Z,19.43
2023-12-12T12:33:58.715Z,9.00
2023-12-12T12:37:03.804Z,15.03
2023-12-12T12:40:07.005Z,13.13
2023-12-12T12:43:19.314Z,8.30
2023-12-12T12:46:21.800Z,10.57
2023-12-12T12:49:24.449Z,14.30
2023-12-12T12:52:27.193Z,9.57
2023-12-12T12:55:29.731Z,14.53
2023-12-12T12:58:32.586Z,10.60
2023-12-12T13:01:35.081Z,17.20
2023-12-12T13:04:39.712Z,21.03
2023-12-12T13:07:46.774Z,20.03
2023-12-12T13:10:51.354Z,22.50
2023-12-12T13:13:54.407Z,19.97
2023-12-12T13:16:56.645Z,13.40
2023-12-12T13:20:01.700Z,14.23
2023-12-12T13:23:03.784Z,22.80
2023-12-12T13:26:09.193Z,13.00
2023-12-12T13:29:12.401Z,11.17
2023-12-12T13:32:16.916Z,17.53
2023-12-12T13:35:30.575Z,19.63
2023-12-12T13:38:37.838Z,20.63
2023-12-12T13:41:41.357Z,19.70
2023-12-12T13:44:44.437Z,15.70
2023-12-12T13:47:47.451Z,14.93
2023-12-12T13:50:50.040Z,18.63
2023-12-12T13:53:53.432Z,22.37
2023-12-12T13:56:57.133Z,18.23
2023-12-12T14:00:00.439Z,27.60
2023-12-12T14:03:02.812Z,22.80
2023-12-12T14:06:06.114Z,25.60
2023-12-12T14:09:08.559Z,36.73
2023-12-12T14:12:10.590Z,27.83
2023-12-12T14:15:13.299Z,29.07
2023-12-12T14:18:16.011Z,25.97
2023-12-12T14:21:18.478Z,23.57
2023-12-12T14:24:20.899Z,17.80
2023-12-12T14:27:24.321Z,23.63
2023-12-12T14:30:29.266Z,31.00
2023-12-12T14:33:32.465Z,30.83
2023-12-12T14:36:35.670Z,37.20
2023-12-12T14:39:38.109Z,52.90
2023-12-12T14:42:41.220Z,50.33
2023-12-12T14:45:44.742Z,42.57
2023-12-12T14:48:47.959Z,54.57
2023-12-12T14:51:51.857Z,44.67
2023-12-12T14:54:53.979Z,34.13
2023-12-12T14:57:56.475Z,66.70
2023-12-12T15:00:58.887Z,68.83
2023-12-12T15:04:01.208Z,55.33
2023-12-12T15:07:03.585Z,86.07
2023-12-12T15:10:07.462Z,92.97
2023-12-12T15:13:09.606Z,109.87
2023-12-12T15:16:12.807Z,69.20
2023-12-12T15:19:15.004Z,70.83
2023-12-12T15:22:17.645Z,67.40
2023-12-12T15:25:28.066Z,64.67
2023-12-12T15:28:34.688Z,69.37
2023-12-12T15:31:37.265Z,76.80
2023-12-12T15:34:39.588Z,66.70
2023-12-12T15:37:43.897Z,83.20
2023-12-12T15:40:47.828Z,88.20
2023-12-12T15:43:51.528Z,104.53
2023-12-12T15:46:54.694Z,79.23
2023-12-12T15:49:56.985Z,90.50
2023-12-12T15:52:59.307Z,93.83
2023-12-12T15:56:01.517Z,134.73
2023-12-12T15:59:03.761Z,106.17
2023-12-12T16:02:06.178Z,98.67
2023-12-12T16:05:10.865Z,109.97
2023-12-12T16:08:13.707Z,100.07
2023-12-12T16:11:19.986Z,85.50
2023-12-12T16:14:22.912Z,68.77
2023-12-12T16:17:25.090Z,75.23
2023-12-12T16:20:27.604Z,76.03
2023-12-12T16:23:30.671Z,58.03
2023-12-12T16:26:34.069Z,64.90
2023-12-12T16:29:36.262Z,65.90
2023-12-12T16:32:39.626Z,60.27
2023-12-12T16:35:43.085Z,41.67
2023-12-12T16:38:47.052Z,40.87
2023-12-12T16:41:49.587Z,55.97
2023-12-12T16:44:52.064Z,72.77
2023-12-12T16:47:54.314Z,265.80
2023-12-12T16:50:58.995Z,70.73
2023-12-12T16:54:01.393Z,80.40
2023-12-12T16:57:03.478Z,60.93
2023-12-12T17:00:12.283Z,64.70
2023-12-12T17:03:15.702Z,64.00
2023-12-12T17:06:21.553Z,50.10
2023-12-12T17:09:24.826Z,75.17
2023-12-12T17:12:27.612Z,68.37
2023-12-12T17:15:29.974Z,49.10
2023-12-12T17:18:31.965Z,50.60
2023-12-12T17:21:34.500Z,26.43
2023-12-12T17:24:39.760Z,28.67
2023-12-12T17:27:42.077Z,69.70
2023-12-12T17:30:45.497Z,46.50
2023-12-12T17:33:50.182Z,45.20
2023-12-12T17:36:53.474Z,46.27
2023-12-12T17:39:55.766Z,23.40
2023-12-12T17:42:58.072Z,28.03
2023-12-12T17:46:02.131Z,31.03
2023-12-12T17:49:05.208Z,42.07
2023-12-12T17:52:07.442Z,45.53
2023-12-12T17:55:09.758Z,34.50
2023-12-12T17:58:13.032Z,47.73
2023-12-12T18:01:15.679Z,36.17
2023-12-12T18:04:18.123Z,35.93
2023-12-12T18:07:20.328Z,33.57
2023-12-12T18:10:23.624Z,45.80
2023-12-12T18:13:25.969Z,38.77
2023-12-12T18:16:29.189Z,55.90
2023-12-12T18:19:32.425Z,30.33
2023-12-12T18:22:46.999Z,53.37
2023-12-12T18:25:49.586Z,48.60
2023-12-12T18:28:58.281Z,50.33
2023-12-12T18:32:00.782Z,46.90
2023-12-12T18:35:03.584Z,38.67
2023-12-12T18:38:07.160Z,38.37
2023-12-12T18:41:09.381Z,32.43
2023-12-12T18:44:13.236Z,25.33
2023-12-12T18:47:15.412Z,36.60
2023-12-12T18:50:19.465Z,27.27
2023-12-12T18:53:23.114Z,24.33
2023-12-12T18:56:26.432Z,27.23
2023-12-12T18:59:29.562Z,24.77
2023-12-12T19:02:32.264Z,23.67
2023-12-12T19:05:35.779Z,38.80
2023-12-12T19:08:47.300Z,23.53
2023-12-12T19:11:54.130Z,26.30
2023-12-12T19:14:58.373Z,31.43
2023-12-12T19:18:01.816Z,31.77
2023-12-12T19:21:05.142Z,28.37
2023-12-12T19:24:08.464Z,36.57
2023-12-12T19:27:10.823Z,36.57
2023-12-12T19:30:16.046Z,38.23
2023-12-12T19:33:21.187Z,33.23
2023-12-12T19:36:24.163Z,23.40
2023-12-12T19:39:28.992Z,33.40
2023-12-12T19:42:32.304Z,25.80
2023-12-12T19:45:35.823Z,28.97
2023-12-12T19:48:37.935Z,36.57
2023-12-12T19:51:47.645Z,20.20
2023-12-12T19:54:51.659Z,37.40
2023-12-12T19:57:54.438Z,24.53
2023-12-12T20:00:58.055Z,25.50
2023-12-12T20:04:00.555Z,23.10
2023-12-12T20:07:03.003Z,19.37
2023-12-12T20:10:06.269Z,17.87
2023-12-12T20:13:10.343Z,24.73
2023-12-12T20:16:18.576Z,27.27
2023-12-12T20:19:24.046Z,15.87
2023-12-12T20:22:27.513Z,25.13
2023-12-12T20:25:31.558Z,21.27
2023-12-12T20:28:33.985Z,24.03
2023-12-12T20:31:36.437Z,23.30
2023-12-12T20:34:38.752Z,22.83
2023-12-12T20:37:43.027Z,19.17
2023-12-12T20:40:46.308Z,30.37
2023-12-12T20:43:54.875Z,19.70
2023-12-12T20:46:58.780Z,27.73
2023-12-12T20:50:02.564Z,29.13
2023-12-12T20:53:05.216Z,37.13
2023-12-12T20:56:10.270Z,31.07
2023-12-12T20:59:12.996Z,17.40
2023-12-12T21:02:16.999Z,28.40
2023-12-12T21:05:20.467Z,23.37
2023-12-12T21:08:49.306Z,15.03
2023-12-12T21:11:51.501Z,13.97
2023-12-12T21:14:54.191Z,25.17
2023-12-12T21:17:56.819Z,28.53
2023-12-12T21:20:59.501Z,30.97
2023-12-12T21:24:01.519Z,22.70
2023-12-12T21:27:04.988Z,31.03
2023-12-12T21:30:08.209Z,28.37
2023-12-12T21:33:12.044Z,28.30
2023-12-12T21:36:15.266Z,17.50
2023-12-12T21:39:17.429Z,19.87
2023-12-12T21:42:19.865Z,21.37
2023-12-12T21:45:22.001Z,11.37
2023-12-12T21:48:25.487Z,15.70
2023-12-12T21:51:27.571Z,17.37
2023-12-12T21:54:33.955Z,20.93
2023-12-12T21:57:36.164Z,17.53
2023-12-12T22:00:38.608Z,15.73
2023-12-12T22:03:48.722Z,15.77
2023-12-12T22:06:51.717Z,21.13
2023-12-12T22:10:02.281Z,16.43
2023-12-12T22:13:04.588Z,16.03
2023-12-12T22:16:08.381Z,17.47
2023-12-12T22:19:10.489Z,13.10
2023-12-12T22:22:15.899Z,17.77
2023-12-12T22:25:18.263Z,12.63
2023-12-12T22:28:20.404Z,18.67
2023-12-12T22:31:22.872Z,13.37
2023-12-12T22:34:24.987Z,9.53
2023-12-12T22:37:28.404Z,14.63
2023-12-12T22:40:30.620Z,21.00
2023-12-12T22:43:33.308Z,16.20
2023-12-12T22:46:35.732Z,13.63
2023-12-12T22:49:37.997Z,13.67
2023-12-12T22:52:42.175Z,11.80
2023-12-12T22:55:45.240Z,14.70
2023-12-12T22:58:48.838Z,14.50
2023-12-12T23:01:51.141Z,12.40
2023-12-12T23:04:55.625Z,12.50
2023-12-12T23:07:59.275Z,13.27
2023-12-12T23:11:01.439Z,16.83
2023-12-12T23:14:04.915Z,9.10
2023-12-12T23:17:07.119Z,12.30
2023-12-12T23:20:11.824Z,7.20
2023-12-12T23:23:17.729Z,7.80
2023-12-12T23:26:20.032Z,11.47
2023-12-12T23:29:22.264Z,9.30
2023-12-12T23:32:25.603Z,11.63
2023-12-12T23:35:27.780Z,28.33
2023-12-12T23:38:32.262Z,14.10
2023-12-12T23:41:40.883Z,8.40
2023-12-12T23:44:42.925Z,8.97
2023-12-12T23:47:45.104Z,6.67
2023-12-12T23:50:47.437Z,10.10
2023-12-12T23:53:57.207Z,9.90
2023-12-12T23:57:00.733Z,10.03
